sensor_id;sensor_type;location;lat;lon;timestamp;temperature;humidity
1728;DHT22;861;48.808;9.006;2022-12-29T00:00:13;10.30;99.90
1728;DHT22;861;48.808;9.006;2022-12-29T00:02:39;10.40;99.90
1728;DHT22;861;48.808;9.006;2022-12-29T00:05:06;10.40;99.90
1728;DHT22;861;48.808;9.006;2022-12-29T00:07:33;10.50;99.90
1728;DHT22;861;48.808;9.006;2022-12-29T00:09:59;10.50;99.90
1728;DHT22;861;48.808;9.006;2022-12-29T00:12:26;10.50;99.90
1728;DHT22;861;48.808;9.006;2022-12-29T00:15:12;10.50;99.90
1728;DHT22;861;48.808;9.006;2022-12-29T00:17:56;10.60;99.90
1728;DHT22;861;48.808;9.006;2022-12-29T00:20:22;10.60;99.90
1728;DHT22;861;48.808;9.006;2022-12-29T00:23:15;10.60;99.90
1728;DHT22;861;48.808;9.006;2022-12-29T00:26:03;10.60;99.90
1728;DHT22;861;48.808;9.006;2022-12-29T00:28:56;10.70;99.90
1728;DHT22;861;48.808;9.006;2022-12-29T00:31:41;10.70;99.90
1728;DHT22;861;48.808;9.006;2022-12-29T00:34:26;10.70;99.90
1728;DHT22;861;48.808;9.006;2022-12-29T00:37:11;10.80;99.90
1728;DHT22;861;48.808;9.006;2022-12-29T00:39:37;10.80;99.90
1728;DHT22;861;48.808;9.006;2022-12-29T00:42:22;10.70;99.90
1728;DHT22;861;48.808;9.006;2022-12-29T00:45:07;10.80;99.90
1728;DHT22;861;48.808;9.006;2022-12-29T00:47:33;10.80;99.90
1728;DHT22;861;48.808;9.006;2022-12-29T00:49:59;11.00;99.90
1728;DHT22;861;48.808;9.006;2022-12-29T00:52:26;10.90;99.90
1728;DHT22;861;48.808;9.006;2022-12-29T00:54:52;10.90;99.90
1728;DHT22;861;48.808;9.006;2022-12-29T00:57:18;11.00;99.90
1728;DHT22;861;48.808;9.006;2022-12-29T00:59:44;11.00;99.90
1728;DHT22;861;48.808;9.006;2022-12-29T01:02:11;11.00;99.90
1728;DHT22;861;48.808;9.006;2022-12-29T01:04:38;11.00;99.90
1728;DHT22;861;48.808;9.006;2022-12-29T01:07:04;11.00;99.90
1728;DHT22;861;48.808;9.006;2022-12-29T01:09:32;11.10;99.90
1728;DHT22;861;48.808;9.006;2022-12-29T01:12:17;11.10;99.90
1728;DHT22;861;48.808;9.006;2022-12-29T01:15:04;11.10;99.90
1728;DHT22;861;48.808;9.006;2022-12-29T01:17:32;11.00;99.90
1728;DHT22;861;48.808;9.006;2022-12-29T01:19:58;11.00;99.90
1728;DHT22;861;48.808;9.006;2022-12-29T01:22:24;11.00;99.90
1728;DHT22;861;48.808;9.006;2022-12-29T01:24:50;11.00;99.90
1728;DHT22;861;48.808;9.006;2022-12-29T01:27:16;11.10;99.90
1728;DHT22;861;48.808;9.006;2022-12-29T01:29:42;11.10;99.90
1728;DHT22;861;48.808;9.006;2022-12-29T01:32:09;11.10;99.90
1728;DHT22;861;48.808;9.006;2022-12-29T01:34:35;11.10;99.90
1728;DHT22;861;48.808;9.006;2022-12-29T01:37:01;11.00;99.90
1728;DHT22;861;48.808;9.006;2022-12-29T01:39:27;11.20;99.90
1728;DHT22;861;48.808;9.006;2022-12-29T01:41:53;11.20;99.90
1728;DHT22;861;48.808;9.006;2022-12-29T01:44:51;11.10;99.90
1728;DHT22;861;48.808;9.006;2022-12-29T01:47:59;11.00;99.90
1728;DHT22;861;48.808;9.006;2022-12-29T01:50:41;11.10;99.90
1728;DHT22;861;48.808;9.006;2022-12-29T01:53:25;11.00;99.90
1728;DHT22;861;48.808;9.006;2022-12-29T01:56:07;10.90;99.90
1728;DHT22;861;48.808;9.006;2022-12-29T01:58:45;11.00;99.90
1728;DHT22;861;48.808;9.006;2022-12-29T02:01:20;11.10;99.90
1728;DHT22;861;48.808;9.006;2022-12-29T02:03:50;11.10;99.90
1728;DHT22;861;48.808;9.006;2022-12-29T02:06:38;11.00;99.90
1728;DHT22;861;48.808;9.006;2022-12-29T02:09:19;11.10;99.90
1728;DHT22;861;48.808;9.006;2022-12-29T02:11:47;11.00;99.90
1728;DHT22;861;48.808;9.006;2022-12-29T02:14:14;11.10;99.90
1728;DHT22;861;48.808;9.006;2022-12-29T02:17:39;11.10;99.90
1728;DHT22;861;48.808;9.006;2022-12-29T02:27:55;11.30;99.90
1728;DHT22;861;48.808;9.006;2022-12-29T02:31:12;11.20;99.90
1728;DHT22;861;48.808;9.006;2022-12-29T02:34:49;11.30;99.90
1728;DHT22;861;48.808;9.006;2022-12-29T02:37:57;11.30;99.90
1728;DHT22;861;48.808;9.006;2022-12-29T02:40:57;11.30;99.90
1728;DHT22;861;48.808;9.006;2022-12-29T02:47:05;11.30;99.90
1728;DHT22;861;48.808;9.006;2022-12-29T02:50:19;11.30;99.90
1728;DHT22;861;48.808;9.006;2022-12-29T02:53:15;11.30;99.90
1728;DHT22;861;48.808;9.006;2022-12-29T02:56:04;11.40;99.90
1728;DHT22;861;48.808;9.006;2022-12-29T02:58:31;11.40;99.90
1728;DHT22;861;48.808;9.006;2022-12-29T03:11:07;11.40;99.90
1728;DHT22;861;48.808;9.006;2022-12-29T03:14:30;11.40;99.90
1728;DHT22;861;48.808;9.006;2022-12-29T03:17:54;11.50;99.90
1728;DHT22;861;48.808;9.006;2022-12-29T03:20:47;11.50;99.90
1728;DHT22;861;48.808;9.006;2022-12-29T03:23:25;11.50;99.90
1728;DHT22;861;48.808;9.006;2022-12-29T03:26:01;11.40;99.90
1728;DHT22;861;48.808;9.006;2022-12-29T03:28:52;11.40;99.90
1728;DHT22;861;48.808;9.006;2022-12-29T03:31:25;11.40;99.90
1728;DHT22;861;48.808;9.006;2022-12-29T03:33:55;11.40;99.90
1728;DHT22;861;48.808;9.006;2022-12-29T03:36:54;11.50;99.90
1728;DHT22;861;48.808;9.006;2022-12-29T03:39:28;11.50;99.90
1728;DHT22;861;48.808;9.006;2022-12-29T03:42:05;11.50;99.90
1728;DHT22;861;48.808;9.006;2022-12-29T03:44:45;11.50;99.90
1728;DHT22;861;48.808;9.006;2022-12-29T03:47:14;11.50;99.90
1728;DHT22;861;48.808;9.006;2022-12-29T03:49:41;11.50;99.90
1728;DHT22;861;48.808;9.006;2022-12-29T03:52:07;11.40;99.90
1728;DHT22;861;48.808;9.006;2022-12-29T03:54:33;11.50;99.90
1728;DHT22;861;48.808;9.006;2022-12-29T03:57:00;11.60;99.90
1728;DHT22;861;48.808;9.006;2022-12-29T03:59:26;11.60;99.90
1728;DHT22;861;48.808;9.006;2022-12-29T04:01:52;11.70;99.90
1728;DHT22;861;48.808;9.006;2022-12-29T04:04:18;11.60;99.90
1728;DHT22;861;48.808;9.006;2022-12-29T04:06:44;11.60;99.90
1728;DHT22;861;48.808;9.006;2022-12-29T04:09:10;11.60;99.90
1728;DHT22;861;48.808;9.006;2022-12-29T04:11:37;11.60;99.90
1728;DHT22;861;48.808;9.006;2022-12-29T04:14:03;11.60;99.90
1728;DHT22;861;48.808;9.006;2022-12-29T04:16:29;11.70;99.90
1728;DHT22;861;48.808;9.006;2022-12-29T04:18:55;11.70;99.90
1728;DHT22;861;48.808;9.006;2022-12-29T04:21:21;11.60;99.90
1728;DHT22;861;48.808;9.006;2022-12-29T04:23:47;11.70;99.90
1728;DHT22;861;48.808;9.006;2022-12-29T04:26:14;11.80;99.90
1728;DHT22;861;48.808;9.006;2022-12-29T04:28:40;11.80;99.90
1728;DHT22;861;48.808;9.006;2022-12-29T04:31:06;11.70;99.90
1728;DHT22;861;48.808;9.006;2022-12-29T04:33:32;11.80;99.90
1728;DHT22;861;48.808;9.006;2022-12-29T04:35:58;11.70;99.90
1728;DHT22;861;48.808;9.006;2022-12-29T04:38:25;11.60;99.90
1728;DHT22;861;48.808;9.006;2022-12-29T04:40:52;11.60;99.90
1728;DHT22;861;48.808;9.006;2022-12-29T04:43:18;11.70;99.90
1728;DHT22;861;48.808;9.006;2022-12-29T04:45:46;11.60;99.90
1728;DHT22;861;48.808;9.006;2022-12-29T04:48:13;11.70;99.90
1728;DHT22;861;48.808;9.006;2022-12-29T04:50:42;11.60;99.90
1728;DHT22;861;48.808;9.006;2022-12-29T04:53:09;11.50;99.90
1728;DHT22;861;48.808;9.006;2022-12-29T04:55:36;11.60;99.90
1728;DHT22;861;48.808;9.006;2022-12-29T04:58:02;11.60;99.90
1728;DHT22;861;48.808;9.006;2022-12-29T05:00:28;11.60;99.90
1728;DHT22;861;48.808;9.006;2022-12-29T05:02:54;11.60;99.90
1728;DHT22;861;48.808;9.006;2022-12-29T05:05:20;11.50;99.90
1728;DHT22;861;48.808;9.006;2022-12-29T05:07:46;11.50;99.90
1728;DHT22;861;48.808;9.006;2022-12-29T05:10:13;11.50;99.90
1728;DHT22;861;48.808;9.006;2022-12-29T05:12:39;11.50;99.90
1728;DHT22;861;48.808;9.006;2022-12-29T05:15:08;11.60;99.90
1728;DHT22;861;48.808;9.006;2022-12-29T05:17:36;11.60;99.90
1728;DHT22;861;48.808;9.006;2022-12-29T05:20:05;11.60;99.90
1728;DHT22;861;48.808;9.006;2022-12-29T05:22:32;11.60;99.90
1728;DHT22;861;48.808;9.006;2022-12-29T05:24:59;11.50;99.90
1728;DHT22;861;48.808;9.006;2022-12-29T05:27:25;11.50;99.90
1728;DHT22;861;48.808;9.006;2022-12-29T05:29:51;11.60;99.90
1728;DHT22;861;48.808;9.006;2022-12-29T05:32:17;11.60;99.90
1728;DHT22;861;48.808;9.006;2022-12-29T05:34:44;11.60;99.90
1728;DHT22;861;48.808;9.006;2022-12-29T05:37:11;11.60;99.90
1728;DHT22;861;48.808;9.006;2022-12-29T05:39:37;11.70;99.90
1728;DHT22;861;48.808;9.006;2022-12-29T05:42:03;11.70;99.90
1728;DHT22;861;48.808;9.006;2022-12-29T05:44:30;11.70;99.90
1728;DHT22;861;48.808;9.006;2022-12-29T05:46:56;11.70;99.90
1728;DHT22;861;48.808;9.006;2022-12-29T05:49:22;11.70;99.90
1728;DHT22;861;48.808;9.006;2022-12-29T05:51:48;11.80;99.90
1728;DHT22;861;48.808;9.006;2022-12-29T05:54:14;11.80;99.90
1728;DHT22;861;48.808;9.006;2022-12-29T05:56:41;11.70;99.90
1728;DHT22;861;48.808;9.006;2022-12-29T05:59:07;11.70;99.90
1728;DHT22;861;48.808;9.006;2022-12-29T06:01:33;11.80;99.90
1728;DHT22;861;48.808;9.006;2022-12-29T06:04:00;11.90;99.90
1728;DHT22;861;48.808;9.006;2022-12-29T06:06:26;11.80;99.90
1728;DHT22;861;48.808;9.006;2022-12-29T06:08:53;11.80;99.90
1728;DHT22;861;48.808;9.006;2022-12-29T06:11:19;11.80;99.90
1728;DHT22;861;48.808;9.006;2022-12-29T06:13:45;11.80;99.90
1728;DHT22;861;48.808;9.006;2022-12-29T06:16:12;11.70;99.90
1728;DHT22;861;48.808;9.006;2022-12-29T06:18:38;11.80;99.90
1728;DHT22;861;48.808;9.006;2022-12-29T06:21:05;11.70;99.90
1728;DHT22;861;48.808;9.006;2022-12-29T06:23:32;11.80;99.90
1728;DHT22;861;48.808;9.006;2022-12-29T06:25:58;11.60;99.90
1728;DHT22;861;48.808;9.006;2022-12-29T06:28:24;11.60;99.90
1728;DHT22;861;48.808;9.006;2022-12-29T06:30:50;11.60;99.90
1728;DHT22;861;48.808;9.006;2022-12-29T06:33:16;11.60;99.90
1728;DHT22;861;48.808;9.006;2022-12-29T06:35:43;11.60;99.90
1728;DHT22;861;48.808;9.006;2022-12-29T06:38:11;11.50;99.90
1728;DHT22;861;48.808;9.006;2022-12-29T06:40:38;11.50;99.90
1728;DHT22;861;48.808;9.006;2022-12-29T06:43:05;11.50;99.90
1728;DHT22;861;48.808;9.006;2022-12-29T06:45:31;11.50;99.90
1728;DHT22;861;48.808;9.006;2022-12-29T06:47:57;11.60;99.90
1728;DHT22;861;48.808;9.006;2022-12-29T06:50:23;11.60;99.90
1728;DHT22;861;48.808;9.006;2022-12-29T06:52:49;11.70;99.90
1728;DHT22;861;48.808;9.006;2022-12-29T06:55:16;11.60;99.90
1728;DHT22;861;48.808;9.006;2022-12-29T06:57:42;11.70;99.90
1728;DHT22;861;48.808;9.006;2022-12-29T07:00:09;11.80;99.90
1728;DHT22;861;48.808;9.006;2022-12-29T07:02:35;11.70;99.90
1728;DHT22;861;48.808;9.006;2022-12-29T07:05:01;11.70;99.90
1728;DHT22;861;48.808;9.006;2022-12-29T07:07:28;11.70;99.90
1728;DHT22;861;48.808;9.006;2022-12-29T07:09:54;11.70;99.90
1728;DHT22;861;48.808;9.006;2022-12-29T07:12:20;11.70;99.90
1728;DHT22;861;48.808;9.006;2022-12-29T07:14:46;11.70;99.90
1728;DHT22;861;48.808;9.006;2022-12-29T07:17:12;11.70;99.90
1728;DHT22;861;48.808;9.006;2022-12-29T07:19:39;11.70;99.90
1728;DHT22;861;48.808;9.006;2022-12-29T07:22:05;11.70;99.90
1728;DHT22;861;48.808;9.006;2022-12-29T07:24:31;11.50;99.90
1728;DHT22;861;48.808;9.006;2022-12-29T07:26:57;11.60;99.90
1728;DHT22;861;48.808;9.006;2022-12-29T07:29:23;11.60;99.90
1728;DHT22;861;48.808;9.006;2022-12-29T07:31:49;11.60;99.90
1728;DHT22;861;48.808;9.006;2022-12-29T07:34:16;11.60;99.90
1728;DHT22;861;48.808;9.006;2022-12-29T07:36:42;11.60;99.90
1728;DHT22;861;48.808;9.006;2022-12-29T07:39:08;11.60;99.90
1728;DHT22;861;48.808;9.006;2022-12-29T07:41:34;11.60;99.90
1728;DHT22;861;48.808;9.006;2022-12-29T07:44:00;11.50;99.90
1728;DHT22;861;48.808;9.006;2022-12-29T07:46:27;11.40;99.90
1728;DHT22;861;48.808;9.006;2022-12-29T07:48:53;11.60;99.90
1728;DHT22;861;48.808;9.006;2022-12-29T07:51:19;11.60;99.90
1728;DHT22;861;48.808;9.006;2022-12-29T07:53:45;11.50;99.90
1728;DHT22;861;48.808;9.006;2022-12-29T07:56:11;11.50;99.90
1728;DHT22;861;48.808;9.006;2022-12-29T07:58:37;11.50;99.90
1728;DHT22;861;48.808;9.006;2022-12-29T08:01:04;11.60;99.90
1728;DHT22;861;48.808;9.006;2022-12-29T08:03:31;11.50;99.90
1728;DHT22;861;48.808;9.006;2022-12-29T08:05:57;11.40;99.90
1728;DHT22;861;48.808;9.006;2022-12-29T08:08:23;11.50;99.90
1728;DHT22;861;48.808;9.006;2022-12-29T08:10:49;11.40;99.90
1728;DHT22;861;48.808;9.006;2022-12-29T08:13:15;11.50;99.90
1728;DHT22;861;48.808;9.006;2022-12-29T08:15:41;11.40;99.90
1728;DHT22;861;48.808;9.006;2022-12-29T08:18:08;11.60;99.90
1728;DHT22;861;48.808;9.006;2022-12-29T08:20:34;11.60;99.90
1728;DHT22;861;48.808;9.006;2022-12-29T08:23:00;11.60;99.90
1728;DHT22;861;48.808;9.006;2022-12-29T08:25:27;11.60;99.90
1728;DHT22;861;48.808;9.006;2022-12-29T08:27:53;11.60;99.90
1728;DHT22;861;48.808;9.006;2022-12-29T08:30:19;11.60;99.90
1728;DHT22;861;48.808;9.006;2022-12-29T08:32:45;11.60;99.90
1728;DHT22;861;48.808;9.006;2022-12-29T08:35:11;11.70;99.90
1728;DHT22;861;48.808;9.006;2022-12-29T08:37:38;11.60;99.90
1728;DHT22;861;48.808;9.006;2022-12-29T08:40:05;11.60;99.90
1728;DHT22;861;48.808;9.006;2022-12-29T08:42:33;11.50;99.90
1728;DHT22;861;48.808;9.006;2022-12-29T08:44:59;11.60;99.90
1728;DHT22;861;48.808;9.006;2022-12-29T08:47:27;11.60;99.90
1728;DHT22;861;48.808;9.006;2022-12-29T08:49:53;11.70;99.90
1728;DHT22;861;48.808;9.006;2022-12-29T08:52:20;11.70;99.90
1728;DHT22;861;48.808;9.006;2022-12-29T08:54:46;11.70;99.90
1728;DHT22;861;48.808;9.006;2022-12-29T08:57:12;11.70;99.90
1728;DHT22;861;48.808;9.006;2022-12-29T08:59:38;11.80;99.90
1728;DHT22;861;48.808;9.006;2022-12-29T09:02:04;11.80;99.90
1728;DHT22;861;48.808;9.006;2022-12-29T09:04:31;11.80;99.90
1728;DHT22;861;48.808;9.006;2022-12-29T09:06:57;11.90;99.90
1728;DHT22;861;48.808;9.006;2022-12-29T09:09:23;12.10;99.90
1728;DHT22;861;48.808;9.006;2022-12-29T09:11:50;12.20;99.90
1728;DHT22;861;48.808;9.006;2022-12-29T09:14:16;12.40;99.90
1728;DHT22;861;48.808;9.006;2022-12-29T09:16:42;12.50;99.90
1728;DHT22;861;48.808;9.006;2022-12-29T09:19:27;12.60;99.90
1728;DHT22;861;48.808;9.006;2022-12-29T09:21:53;12.70;99.90
1728;DHT22;861;48.808;9.006;2022-12-29T09:24:19;12.90;99.90
1728;DHT22;861;48.808;9.006;2022-12-29T09:26:45;12.90;99.90
1728;DHT22;861;48.808;9.006;2022-12-29T09:29:11;12.90;99.90
1728;DHT22;861;48.808;9.006;2022-12-29T09:31:37;12.90;99.90
1728;DHT22;861;48.808;9.006;2022-12-29T09:34:04;12.90;99.90
1728;DHT22;861;48.808;9.006;2022-12-29T09:36:30;13.10;99.90
1728;DHT22;861;48.808;9.006;2022-12-29T09:38:56;13.10;99.90
1728;DHT22;861;48.808;9.006;2022-12-29T09:41:46;13.10;99.90
1728;DHT22;861;48.808;9.006;2022-12-29T09:45:15;13.30;99.90
1728;DHT22;861;48.808;9.006;2022-12-29T09:47:51;13.30;99.90
1728;DHT22;861;48.808;9.006;2022-12-29T09:50:28;13.40;99.90
1728;DHT22;861;48.808;9.006;2022-12-29T09:53:19;13.40;99.90
1728;DHT22;861;48.808;9.006;2022-12-29T09:56:01;13.40;99.90
1728;DHT22;861;48.808;9.006;2022-12-29T09:58:51;13.30;99.90
1728;DHT22;861;48.808;9.006;2022-12-29T10:01:43;13.40;99.90
1728;DHT22;861;48.808;9.006;2022-12-29T10:04:19;13.40;99.90
1728;DHT22;861;48.808;9.006;2022-12-29T10:06:51;13.30;99.90
1728;DHT22;861;48.808;9.006;2022-12-29T10:10:03;13.20;99.90
1728;DHT22;861;48.808;9.006;2022-12-29T10:19:55;13.10;99.90
1728;DHT22;861;48.808;9.006;2022-12-29T10:25:58;13.10;99.90
1728;DHT22;861;48.808;9.006;2022-12-29T10:28:50;13.10;99.90
1728;DHT22;861;48.808;9.006;2022-12-29T10:31:37;13.20;99.90
1728;DHT22;861;48.808;9.006;2022-12-29T10:34:38;13.30;99.90
1728;DHT22;861;48.808;9.006;2022-12-29T10:37:45;13.30;99.90
1728;DHT22;861;48.808;9.006;2022-12-29T10:41:19;13.40;99.90
1728;DHT22;861;48.808;9.006;2022-12-29T10:43:57;13.40;99.90
1728;DHT22;861;48.808;9.006;2022-12-29T10:46:34;13.40;99.90
1728;DHT22;861;48.808;9.006;2022-12-29T10:49:06;13.50;99.90
1728;DHT22;861;48.808;9.006;2022-12-29T10:51:48;13.50;99.90
1728;DHT22;861;48.808;9.006;2022-12-29T10:54:39;13.50;99.90
1728;DHT22;861;48.808;9.006;2022-12-29T11:00:14;13.60;99.90
1728;DHT22;861;48.808;9.006;2022-12-29T11:06:29;13.50;99.90
1728;DHT22;861;48.808;9.006;2022-12-29T11:09:02;13.40;99.90
1728;DHT22;861;48.808;9.006;2022-12-29T11:11:40;13.50;99.90
1728;DHT22;861;48.808;9.006;2022-12-29T11:14:18;13.50;99.90
1728;DHT22;861;48.808;9.006;2022-12-29T11:17:04;13.40;99.90
1728;DHT22;861;48.808;9.006;2022-12-29T11:19:33;13.50;99.90
1728;DHT22;861;48.808;9.006;2022-12-29T11:22:28;13.40;99.90
1728;DHT22;861;48.808;9.006;2022-12-29T11:25:10;13.40;99.90
1728;DHT22;861;48.808;9.006;2022-12-29T11:27:38;13.40;99.90
1728;DHT22;861;48.808;9.006;2022-12-29T11:30:25;13.40;99.90
1728;DHT22;861;48.808;9.006;2022-12-29T11:32:56;13.40;99.90
1728;DHT22;861;48.808;9.006;2022-12-29T11:35:35;13.40;99.90
1728;DHT22;861;48.808;9.006;2022-12-29T11:38:22;13.30;99.90
1728;DHT22;861;48.808;9.006;2022-12-29T11:40:59;13.40;99.90
1728;DHT22;861;48.808;9.006;2022-12-29T11:43:33;13.30;99.90
1728;DHT22;861;48.808;9.006;2022-12-29T11:46:06;13.20;99.90
1728;DHT22;861;48.808;9.006;2022-12-29T11:48:46;13.00;99.90
1728;DHT22;861;48.808;9.006;2022-12-29T11:51:28;12.90;99.90
1728;DHT22;861;48.808;9.006;2022-12-29T11:54:27;12.90;99.90
1728;DHT22;861;48.808;9.006;2022-12-29T11:57:14;12.80;99.90
1728;DHT22;861;48.808;9.006;2022-12-29T11:59:54;12.70;99.90
1728;DHT22;861;48.808;9.006;2022-12-29T12:02:42;12.70;99.90
1728;DHT22;861;48.808;9.006;2022-12-29T12:05:37;12.60;99.90
1728;DHT22;861;48.808;9.006;2022-12-29T12:11:16;12.60;99.90
1728;DHT22;861;48.808;9.006;2022-12-29T12:17:19;12.50;99.90
1728;DHT22;861;48.808;9.006;2022-12-29T12:20:12;12.50;99.90
1728;DHT22;861;48.808;9.006;2022-12-29T12:33:05;12.80;99.90
1728;DHT22;861;48.808;9.006;2022-12-29T12:56:21;13.80;99.90
1728;DHT22;861;48.808;9.006;2022-12-29T12:59:59;14.10;99.90
1728;DHT22;861;48.808;9.006;2022-12-29T13:16:03;13.70;99.90
1728;DHT22;861;48.808;9.006;2022-12-29T13:22:25;13.30;99.90
1728;DHT22;861;48.808;9.006;2022-12-29T13:29:17;13.00;99.90
1728;DHT22;861;48.808;9.006;2022-12-29T13:32:29;12.90;99.90
1728;DHT22;861;48.808;9.006;2022-12-29T13:38:40;13.00;99.90
1728;DHT22;861;48.808;9.006;2022-12-29T13:44:03;12.80;99.90
1728;DHT22;861;48.808;9.006;2022-12-29T13:46:42;12.80;99.90
1728;DHT22;861;48.808;9.006;2022-12-29T13:49:23;12.80;99.90
1728;DHT22;861;48.808;9.006;2022-12-29T13:51:57;12.90;99.90
1728;DHT22;861;48.808;9.006;2022-12-29T13:55:39;12.80;99.90
1728;DHT22;861;48.808;9.006;2022-12-29T13:58:13;12.80;99.90
1728;DHT22;861;48.808;9.006;2022-12-29T14:04:27;12.80;99.90
1728;DHT22;861;48.808;9.006;2022-12-29T14:07:17;12.80;99.90
1728;DHT22;861;48.808;9.006;2022-12-29T14:09:53;12.80;99.90
1728;DHT22;861;48.808;9.006;2022-12-29T14:12:39;12.80;99.90
1728;DHT22;861;48.808;9.006;2022-12-29T14:17:36;12.70;99.90
1728;DHT22;861;48.808;9.006;2022-12-29T14:20:21;12.70;99.90
1728;DHT22;861;48.808;9.006;2022-12-29T14:23:25;12.70;99.90
1728;DHT22;861;48.808;9.006;2022-12-29T14:28:57;13.20;99.90
1728;DHT22;861;48.808;9.006;2022-12-29T14:34:58;13.10;99.90
1728;DHT22;861;48.808;9.006;2022-12-29T14:37:36;13.00;99.90
1728;DHT22;861;48.808;9.006;2022-12-29T14:40:26;12.70;99.90
1728;DHT22;861;48.808;9.006;2022-12-29T14:42:56;12.60;99.90
1728;DHT22;861;48.808;9.006;2022-12-29T14:45:30;12.60;99.90
1728;DHT22;861;48.808;9.006;2022-12-29T14:48:41;12.50;99.90
1728;DHT22;861;48.808;9.006;2022-12-29T14:51:34;12.40;99.90
1728;DHT22;861;48.808;9.006;2022-12-29T14:57:05;12.40;99.90
1728;DHT22;861;48.808;9.006;2022-12-29T14:59:39;12.20;99.90
1728;DHT22;861;48.808;9.006;2022-12-29T15:02:23;12.20;99.90
1728;DHT22;861;48.808;9.006;2022-12-29T15:05:02;12.10;99.90
1728;DHT22;861;48.808;9.006;2022-12-29T15:07:32;12.10;99.90
1728;DHT22;861;48.808;9.006;2022-12-29T15:10:13;12.00;99.90
1728;DHT22;861;48.808;9.006;2022-12-29T15:13:00;12.00;99.90
1728;DHT22;861;48.808;9.006;2022-12-29T15:15:38;12.00;99.90
1728;DHT22;861;48.808;9.006;2022-12-29T15:18:30;11.90;99.90
1728;DHT22;861;48.808;9.006;2022-12-29T15:21:05;11.90;99.90
1728;DHT22;861;48.808;9.006;2022-12-29T15:23:35;11.80;99.90
1728;DHT22;861;48.808;9.006;2022-12-29T15:26:07;11.90;99.90
1728;DHT22;861;48.808;9.006;2022-12-29T15:28:44;11.80;99.90
1728;DHT22;861;48.808;9.006;2022-12-29T15:31:24;11.90;99.90
1728;DHT22;861;48.808;9.006;2022-12-29T15:34:03;11.90;99.90
1728;DHT22;861;48.808;9.006;2022-12-29T15:36:40;11.90;99.90
1728;DHT22;861;48.808;9.006;2022-12-29T15:39:29;11.80;99.90
1728;DHT22;861;48.808;9.006;2022-12-29T15:45:16;11.20;99.90
1728;DHT22;861;48.808;9.006;2022-12-29T15:47:47;10.90;99.90
1728;DHT22;861;48.808;9.006;2022-12-29T15:50:22;10.70;99.90
1728;DHT22;861;48.808;9.006;2022-12-29T15:52:55;10.70;99.90
1728;DHT22;861;48.808;9.006;2022-12-29T15:55:34;10.60;99.90
1728;DHT22;861;48.808;9.006;2022-12-29T15:58:23;10.40;99.90
1728;DHT22;861;48.808;9.006;2022-12-29T16:01:01;10.20;99.90
1728;DHT22;861;48.808;9.006;2022-12-29T16:03:35;10.30;99.90
1728;DHT22;861;48.808;9.006;2022-12-29T16:06:36;10.10;99.90
1728;DHT22;861;48.808;9.006;2022-12-29T16:09:44;10.10;99.90
1728;DHT22;861;48.808;9.006;2022-12-29T16:12:21;10.10;99.90
1728;DHT22;861;48.808;9.006;2022-12-29T16:15:01;10.00;99.90
1728;DHT22;861;48.808;9.006;2022-12-29T16:17:50;9.90;99.90
1728;DHT22;861;48.808;9.006;2022-12-29T16:20:25;9.80;99.90
1728;DHT22;861;48.808;9.006;2022-12-29T16:23:22;9.90;99.90
1728;DHT22;861;48.808;9.006;2022-12-29T16:25:56;9.90;99.90
1728;DHT22;861;48.808;9.006;2022-12-29T16:28:41;9.80;99.90
1728;DHT22;861;48.808;9.006;2022-12-29T16:31:57;9.90;99.90
1728;DHT22;861;48.808;9.006;2022-12-29T16:37:28;9.90;99.90
1728;DHT22;861;48.808;9.006;2022-12-29T16:40:25;9.90;99.90
1728;DHT22;861;48.808;9.006;2022-12-29T16:43:04;9.90;99.90
1728;DHT22;861;48.808;9.006;2022-12-29T16:48:21;9.90;99.90
1728;DHT22;861;48.808;9.006;2022-12-29T16:51:04;9.90;99.90
1728;DHT22;861;48.808;9.006;2022-12-29T16:53:52;9.80;99.90
1728;DHT22;861;48.808;9.006;2022-12-29T16:56:25;10.00;99.90
1728;DHT22;861;48.808;9.006;2022-12-29T16:59:08;9.80;99.90
1728;DHT22;861;48.808;9.006;2022-12-29T17:01:43;9.70;99.90
1728;DHT22;861;48.808;9.006;2022-12-29T17:04:13;9.70;99.90
1728;DHT22;861;48.808;9.006;2022-12-29T17:06:40;9.70;99.90
1728;DHT22;861;48.808;9.006;2022-12-29T17:09:36;9.80;99.90
1728;DHT22;861;48.808;9.006;2022-12-29T17:12:03;9.80;99.90
1728;DHT22;861;48.808;9.006;2022-12-29T17:18:00;9.80;99.90
1728;DHT22;861;48.808;9.006;2022-12-29T17:20:30;9.80;99.90
1728;DHT22;861;48.808;9.006;2022-12-29T17:22:59;9.80;99.90
1728;DHT22;861;48.808;9.006;2022-12-29T17:25:37;9.80;99.90
1728;DHT22;861;48.808;9.006;2022-12-29T17:28:22;10.00;99.90
1728;DHT22;861;48.808;9.006;2022-12-29T17:31:01;9.80;99.90
1728;DHT22;861;48.808;9.006;2022-12-29T17:33:37;9.80;99.90
1728;DHT22;861;48.808;9.006;2022-12-29T17:36:07;9.90;99.90
1728;DHT22;861;48.808;9.006;2022-12-29T17:38:36;9.90;99.90
1728;DHT22;861;48.808;9.006;2022-12-29T17:41:03;10.10;99.90
1728;DHT22;861;48.808;9.006;2022-12-29T17:43:30;10.10;99.90
1728;DHT22;861;48.808;9.006;2022-12-29T17:45:57;9.90;99.90
1728;DHT22;861;48.808;9.006;2022-12-29T17:48:24;10.00;99.90
1728;DHT22;861;48.808;9.006;2022-12-29T17:50:53;9.90;99.90
1728;DHT22;861;48.808;9.006;2022-12-29T17:53:28;10.00;99.90
1728;DHT22;861;48.808;9.006;2022-12-29T17:55:56;10.00;99.90
1728;DHT22;861;48.808;9.006;2022-12-29T18:01:01;10.20;99.90
1728;DHT22;861;48.808;9.006;2022-12-29T18:03:33;10.20;99.90
1728;DHT22;861;48.808;9.006;2022-12-29T18:06:05;10.30;99.90
1728;DHT22;861;48.808;9.006;2022-12-29T18:08:36;10.30;99.90
1728;DHT22;861;48.808;9.006;2022-12-29T18:11:24;10.40;99.90
1728;DHT22;861;48.808;9.006;2022-12-29T18:13:52;10.30;99.90
1728;DHT22;861;48.808;9.006;2022-12-29T18:16:21;10.30;99.90
1728;DHT22;861;48.808;9.006;2022-12-29T18:18:48;10.20;99.90
1728;DHT22;861;48.808;9.006;2022-12-29T18:21:20;10.10;99.90
1728;DHT22;861;48.808;9.006;2022-12-29T18:23:49;10.10;99.90
1728;DHT22;861;48.808;9.006;2022-12-29T18:26:25;10.00;99.90
1728;DHT22;861;48.808;9.006;2022-12-29T18:28:58;9.90;99.90
1728;DHT22;861;48.808;9.006;2022-12-29T18:31:28;9.80;99.90
1728;DHT22;861;48.808;9.006;2022-12-29T18:34:00;9.80;99.90
1728;DHT22;861;48.808;9.006;2022-12-29T18:36:37;9.70;99.90
1728;DHT22;861;48.808;9.006;2022-12-29T18:39:03;9.60;99.90
1728;DHT22;861;48.808;9.006;2022-12-29T18:41:29;9.60;99.90
1728;DHT22;861;48.808;9.006;2022-12-29T18:43:57;9.60;99.90
1728;DHT22;861;48.808;9.006;2022-12-29T18:46:24;9.60;99.90
1728;DHT22;861;48.808;9.006;2022-12-29T18:48:52;9.60;99.90
1728;DHT22;861;48.808;9.006;2022-12-29T18:51:22;9.50;99.90
1728;DHT22;861;48.808;9.006;2022-12-29T18:53:51;9.60;99.90
1728;DHT22;861;48.808;9.006;2022-12-29T18:56:19;9.50;99.90
1728;DHT22;861;48.808;9.006;2022-12-29T18:58:47;9.60;99.90
1728;DHT22;861;48.808;9.006;2022-12-29T19:01:26;9.50;99.90
1728;DHT22;861;48.808;9.006;2022-12-29T19:03:53;9.40;99.90
1728;DHT22;861;48.808;9.006;2022-12-29T19:06:19;9.30;99.90
1728;DHT22;861;48.808;9.006;2022-12-29T19:08:46;9.30;99.90
1728;DHT22;861;48.808;9.006;2022-12-29T19:11:12;9.30;99.90
1728;DHT22;861;48.808;9.006;2022-12-29T19:13:39;9.20;99.90
1728;DHT22;861;48.808;9.006;2022-12-29T19:16:16;9.20;99.90
1728;DHT22;861;48.808;9.006;2022-12-29T19:18:46;9.20;99.90
1728;DHT22;861;48.808;9.006;2022-12-29T19:21:13;9.10;99.90
1728;DHT22;861;48.808;9.006;2022-12-29T19:23:39;9.20;99.90